createdAt,value
2023-01-19T00:07:22.152Z,98143.53
2023-01-19T00:17:24.777Z,98150.69
2023-01-19T00:27:27.297Z,98145.56
2023-01-19T00:37:29.927Z,98160.50
2023-01-19T00:47:33.367Z,98184.09
2023-01-19T00:57:36.297Z,98199.03
2023-01-19T01:07:41.348Z,98231.03
2023-01-19T01:17:53.094Z,98251.59
2023-01-19T01:27:55.647Z,98247.44
2023-01-19T01:37:59.181Z,98251.03
2023-01-19T01:48:28.743Z,98252.13
2023-01-19T01:58:33.092Z,98259.91
2023-01-19T02:09:00.970Z,98276.09
2023-01-19T02:19:07.182Z,98268.56
2023-01-19T02:29:16.487Z,98256.28
2023-01-19T02:39:22.479Z,98284.50
2023-01-19T02:49:28.666Z,98302.19
2023-01-19T02:59:56.076Z,98330.75
2023-01-19T03:10:07.798Z,98330.84
2023-01-19T03:20:14.070Z,98313.81
2023-01-19T03:30:22.613Z,98290.97
2023-01-19T03:40:29.572Z,98305.66
2023-01-19T03:50:32.484Z,98341.00
2023-01-19T04:00:36.885Z,98356.72
2023-01-19T04:10:39.936Z,98330.50
2023-01-19T04:20:42.585Z,98333.81
2023-01-19T04:30:45.531Z,98337.84
2023-01-19T04:40:49.014Z,98313.13
2023-01-19T04:50:52.659Z,98366.88
2023-01-19T05:00:55.307Z,98372.84
2023-01-19T05:10:58.023Z,98357.91
2023-01-19T05:21:02.166Z,98354.91
2023-01-19T05:31:05.170Z,98380.72
2023-01-19T05:41:07.727Z,98388.53
2023-01-19T05:51:10.190Z,98378.63
2023-01-19T06:01:12.701Z,98389.94
2023-01-19T06:11:15.393Z,98395.16
2023-01-19T06:21:17.959Z,98377.53
2023-01-19T06:31:20.787Z,98396.50
2023-01-19T06:41:23.320Z,98425.94
2023-01-19T06:51:25.933Z,98411.00
2023-01-19T07:01:28.498Z,98411.81
2023-01-19T07:11:33.085Z,98452.72
2023-01-19T07:21:36.131Z,98452.44
2023-01-19T07:31:38.849Z,98467.28
2023-01-19T07:41:41.754Z,98468.38
2023-01-19T07:51:44.401Z,98479.81
2023-01-19T08:01:46.981Z,98503.00
2023-01-19T08:11:49.568Z,98489.28
2023-01-19T08:21:52.130Z,98499.38
2023-01-19T08:31:56.668Z,98497.31
2023-01-19T08:42:00.844Z,98507.34
2023-01-19T08:52:03.318Z,98529.88
2023-01-19T09:02:06.089Z,98513.91
2023-01-19T09:12:08.724Z,98528.50
2023-01-19T09:22:11.804Z,98537.84
2023-01-19T09:32:14.348Z,98534.06
2023-01-19T09:42:35.553Z,98553.47
2023-01-19T09:52:43.735Z,98565.31
2023-01-19T10:02:53.117Z,98568.16
2023-01-19T10:13:13.075Z,98554.06
2023-01-19T10:23:59.036Z,98564.28
2023-01-19T10:34:01.664Z,98560.69
2023-01-19T10:44:05.505Z,98582.47
2023-01-19T10:54:13.428Z,98604.19
2023-01-19T11:04:28.962Z,98612.38
2023-01-19T11:14:32.011Z,98618.31
2023-01-19T11:24:37.659Z,98613.22
2023-01-19T11:34:40.316Z,98630.72
2023-01-19T11:44:48.947Z,98632.66
2023-01-19T11:55:01.808Z,98636.22
2023-01-19T12:05:11.349Z,98664.75
2023-01-19T12:15:35.239Z,98676.72
2023-01-19T12:26:15.292Z,98681.25
2023-01-19T12:36:26.890Z,98687.50
2023-01-19T12:46:31.075Z,98695.34
2023-01-19T12:56:38.140Z,98722.22
2023-01-19T13:06:49.636Z,98722.88
2023-01-19T13:17:00.872Z,98722.22
2023-01-19T13:27:04.923Z,98738.56
2023-01-19T13:37:18.695Z,98713.97
2023-01-19T13:47:25.239Z,98727.28
2023-01-19T13:57:42.788Z,98771.28
2023-01-19T14:07:45.555Z,98768.13
2023-01-19T14:18:12.035Z,98780.25
2023-01-19T14:28:39.514Z,98782.38
2023-01-19T14:38:50.075Z,98805.75
2023-01-19T14:49:01.440Z,98824.44
2023-01-19T14:59:09.811Z,98837.25
2023-01-19T15:09:13.706Z,98835.03
2023-01-19T15:19:17.434Z,98830.06
2023-01-19T15:29:24.319Z,98806.91
2023-01-19T15:39:26.934Z,98803.06
2023-01-19T15:49:30.981Z,98832.25
2023-01-19T15:59:33.443Z,98857.81
2023-01-19T16:09:36.113Z,98875.53
2023-01-19T16:19:38.735Z,98897.91
2023-01-19T16:29:41.661Z,98936.50
2023-01-19T16:39:45.473Z,98939.03
2023-01-19T16:49:48.081Z,98953.56
2023-01-19T16:59:51.623Z,98958.06
2023-01-19T17:09:54.360Z,98959.84
2023-01-19T17:19:57.261Z,98948.97
2023-01-19T17:30:00.296Z,98929.44
2023-01-19T17:40:03.350Z,98974.88
2023-01-19T17:50:06.388Z,99006.63
2023-01-19T18:00:09.836Z,99001.50
2023-01-19T18:10:16.272Z,99000.47
2023-01-19T18:20:19.645Z,99007.69
2023-01-19T18:30:22.563Z,99030.38
2023-01-19T18:40:26.034Z,99049.59
2023-01-19T18:50:29.149Z,99048.38
2023-01-19T19:00:32.167Z,99024.22
2023-01-19T19:10:35.439Z,99016.66
2023-01-19T19:20:38.980Z,99007.84
2023-01-19T19:30:41.949Z,99018.69
2023-01-19T19:40:44.839Z,99026.88
2023-01-19T19:50:47.860Z,99035.91
2023-01-19T20:00:50.726Z,99042.50
2023-01-19T20:10:53.280Z,99075.59
2023-01-19T20:20:56.438Z,99086.13
2023-01-19T20:31:19.254Z,99090.72
2023-01-19T20:41:23.255Z,99087.66
2023-01-19T20:51:26.942Z,99104.22
2023-01-19T21:01:29.982Z,99100.75
2023-01-19T21:11:33.319Z,99118.19
2023-01-19T21:21:36.477Z,99104.16
2023-01-19T21:31:42.532Z,99073.53
2023-01-19T21:41:45.283Z,99087.16
2023-01-19T21:51:49.129Z,99088.25
2023-01-19T22:01:51.735Z,99079.47
2023-01-19T22:11:54.249Z,99077.53
2023-01-19T22:21:56.718Z,99101.91
2023-01-19T22:31:59.180Z,99115.19
2023-01-19T22:42:04.537Z,99119.78
2023-01-19T22:52:07.040Z,99120.69
2023-01-19T23:02:09.621Z,99135.13
2023-01-19T23:12:12.097Z,99131.69
2023-01-19T23:22:14.649Z,99145.50
2023-01-19T23:32:17.104Z,99152.50
2023-01-19T23:42:19.647Z,99157.47
2023-01-19T23:52:22.082Z,99138.25
